createdAt,value
2018-10-02T00:00:04.305Z,94.77
2018-10-02T00:00:35.407Z,94.76
2018-10-02T00:01:06.557Z,95.07
2018-10-02T00:01:37.680Z,94.64
2018-10-02T00:02:08.820Z,94.83
2018-10-02T00:02:39.975Z,94.46
2018-10-02T00:03:11.076Z,95.18
2018-10-02T00:03:42.185Z,95.08
2018-10-02T00:04:13.300Z,94.89
2018-10-02T00:04:44.393Z,95.07
2018-10-02T00:05:15.502Z,95.43
2018-10-02T00:05:46.614Z,95.30
2018-10-02T00:06:17.733Z,94.90
2018-10-02T00:06:48.840Z,94.93
2018-10-02T00:07:19.977Z,95.56
2018-10-02T00:07:51.111Z,94.92
2018-10-02T00:08:22.210Z,95.33
2018-10-02T00:08:53.340Z,95.33
2018-10-02T00:09:24.477Z,95.75
2018-10-02T00:09:55.569Z,95.28
2018-10-02T00:10:26.680Z,95.71
2018-10-02T00:10:57.794Z,95.31
2018-10-02T00:11:28.930Z,95.44
2018-10-02T00:12:00.033Z,95.18
2018-10-02T00:12:31.149Z,95.25
2018-10-02T00:13:02.246Z,95.75
2018-10-02T00:13:33.347Z,94.99
2018-10-02T00:14:04.501Z,95.41
2018-10-02T00:14:35.616Z,95.41
2018-10-02T00:15:06.769Z,95.10
2018-10-02T00:15:37.911Z,95.58
2018-10-02T00:16:09.028Z,95.28
2018-10-02T00:16:40.176Z,95.46
2018-10-02T00:17:11.332Z,94.92
2018-10-02T00:17:42.444Z,95.41
2018-10-02T00:18:13.542Z,94.91
2018-10-02T00:18:44.645Z,95.16
2018-10-02T00:19:15.755Z,94.64
2018-10-02T00:19:46.856Z,95.25
2018-10-02T00:20:18.022Z,94.87
2018-10-02T00:20:49.123Z,95.01
2018-10-02T00:21:20.278Z,95.18
2018-10-02T00:21:51.387Z,95.13
2018-10-02T00:22:22.557Z,95.21
2018-10-02T00:22:53.649Z,94.87
2018-10-02T00:23:24.770Z,94.93
2018-10-02T00:23:55.892Z,94.94
2018-10-02T00:24:26.997Z,94.69
2018-10-02T00:24:58.104Z,94.74
2018-10-02T00:25:29.262Z,95.47
2018-10-02T00:26:00.418Z,95.05
2018-10-02T00:26:31.525Z,95.30
2018-10-02T00:27:02.673Z,95.08
2018-10-02T00:27:33.789Z,95.04
2018-10-02T00:28:04.935Z,94.95
2018-10-02T00:28:36.051Z,95.20
2018-10-02T00:29:07.162Z,95.05
2018-10-02T00:29:38.294Z,95.45
2018-10-02T00:30:09.453Z,95.69
2018-10-02T00:30:40.634Z,95.24
2018-10-02T00:31:11.749Z,95.32
2018-10-02T00:31:42.894Z,95.78
2018-10-02T00:32:14.137Z,95.65
2018-10-02T00:32:45.196Z,95.60
2018-10-02T00:33:16.320Z,95.54
2018-10-02T00:33:47.439Z,95.82
2018-10-02T00:34:18.545Z,95.54
2018-10-02T00:34:49.653Z,95.60
2018-10-02T00:35:20.746Z,95.38
2018-10-02T00:35:51.893Z,95.35
2018-10-02T00:36:23.024Z,95.58
2018-10-02T00:36:54.122Z,95.85
2018-10-02T00:37:25.253Z,95.30
2018-10-02T00:37:56.402Z,95.76
2018-10-02T00:38:27.503Z,95.28
2018-10-02T00:38:58.635Z,95.76
2018-10-02T00:39:29.765Z,95.22
2018-10-02T00:40:00.857Z,95.48
2018-10-02T00:40:31.977Z,95.94
2018-10-02T00:41:03.086Z,94.94
2018-10-02T00:41:34.217Z,95.81
2018-10-02T00:42:05.406Z,95.85
2018-10-02T00:42:36.625Z,95.42
2018-10-02T00:43:07.750Z,95.58
2018-10-02T00:43:38.855Z,95.65
2018-10-02T00:44:09.962Z,95.37
2018-10-02T00:44:41.105Z,95.62
2018-10-02T00:45:12.219Z,95.51
2018-10-02T00:45:43.335Z,96.31
2018-10-02T00:46:14.439Z,95.54
2018-10-02T00:46:45.581Z,96.19
2018-10-02T00:47:16.700Z,95.75
2018-10-02T00:47:47.810Z,95.90
2018-10-02T00:48:18.913Z,95.97
2018-10-02T00:48:50.030Z,95.86
2018-10-02T00:49:21.122Z,96.25
2018-10-02T00:49:52.270Z,96.26
2018-10-02T00:50:23.368Z,96.42
2018-10-02T00:50:54.514Z,96.41
2018-10-02T00:51:25.633Z,95.74
2018-10-02T00:51:56.743Z,95.98
2018-10-02T00:52:27.863Z,96.42
2018-10-02T00:52:59.025Z,96.59
2018-10-02T00:53:30.166Z,96.60
2018-10-02T00:54:01.279Z,96.32
2018-10-02T00:54:32.390Z,96.79
2018-10-02T00:55:03.490Z,96.93
2018-10-02T00:55:34.637Z,96.67
2018-10-02T00:56:05.767Z,96.60
2018-10-02T00:56:36.894Z,96.88
2018-10-02T00:57:07.994Z,97.48
2018-10-02T00:57:39.087Z,97.13
2018-10-02T00:58:10.197Z,97.04
2018-10-02T00:58:41.309Z,97.23
2018-10-02T00:59:12.431Z,97.37
2018-10-02T00:59:43.583Z,96.84
2018-10-02T01:00:14.704Z,97.17
2018-10-02T01:00:45.837Z,97.32
2018-10-02T01:01:16.955Z,97.12
2018-10-02T01:01:48.054Z,97.43
2018-10-02T01:02:19.176Z,97.06
2018-10-02T01:02:50.314Z,97.32
2018-10-02T01:03:21.463Z,97.71
2018-10-02T01:03:52.569Z,97.46
2018-10-02T01:04:23.686Z,97.14
2018-10-02T01:04:54.815Z,97.55
2018-10-02T01:05:26.098Z,97.35
2018-10-02T01:05:57.207Z,97.50
2018-10-02T01:06:28.339Z,96.79
2018-10-02T01:06:59.492Z,97.26
2018-10-02T01:07:30.621Z,97.30
2018-10-02T01:08:01.731Z,96.97
2018-10-02T01:08:32.835Z,96.71
2018-10-02T01:09:03.936Z,96.82
2018-10-02T01:09:35.039Z,97.17
2018-10-02T01:10:06.180Z,97.08
2018-10-02T01:10:37.337Z,96.89
2018-10-02T01:11:08.442Z,96.52
2018-10-02T01:11:39.577Z,96.48
2018-10-02T01:12:10.678Z,96.51
2018-10-02T01:12:41.798Z,96.23
2018-10-02T01:13:12.959Z,96.79
2018-10-02T01:13:44.068Z,96.32
2018-10-02T01:14:15.213Z,96.28
2018-10-02T01:14:46.425Z,96.35
2018-10-02T01:15:17.546Z,96.35
2018-10-02T01:15:48.663Z,96.35
2018-10-02T01:16:19.816Z,96.11
2018-10-02T01:16:50.922Z,96.31
2018-10-02T01:17:22.018Z,96.78
2018-10-02T01:17:53.137Z,95.89
2018-10-02T01:18:24.243Z,96.41
2018-10-02T01:18:55.393Z,96.22
2018-10-02T01:19:26.526Z,96.15
2018-10-02T01:19:57.647Z,96.50
2018-10-02T01:20:28.754Z,96.28
2018-10-02T01:20:59.929Z,96.55
2018-10-02T01:21:31.027Z,96.60
2018-10-02T01:22:02.158Z,96.28
2018-10-02T01:22:33.261Z,96.15
2018-10-02T01:23:04.376Z,96.28
2018-10-02T01:23:35.503Z,96.33
2018-10-02T01:24:06.662Z,96.46
2018-10-02T01:24:37.771Z,96.46
2018-10-02T01:25:08.888Z,96.41
2018-10-02T01:25:39.994Z,96.11
2018-10-02T01:26:11.105Z,95.77
2018-10-02T01:26:42.233Z,96.15
2018-10-02T01:27:13.352Z,96.16
2018-10-02T01:27:44.516Z,96.52
2018-10-02T01:28:15.618Z,95.79
2018-10-02T01:28:46.762Z,96.28
2018-10-02T01:29:17.927Z,95.87
2018-10-02T01:29:49.038Z,95.90
2018-10-02T01:30:20.185Z,96.38
2018-10-02T01:30:51.315Z,96.37
2018-10-02T01:31:22.424Z,96.15
2018-10-02T01:31:53.549Z,96.10
2018-10-02T01:32:24.686Z,96.01
2018-10-02T01:32:55.795Z,96.50
2018-10-02T01:33:26.904Z,95.96
2018-10-02T01:33:58.054Z,95.80
2018-10-02T01:34:29.202Z,96.01
2018-10-02T01:35:00.348Z,95.66
2018-10-02T01:35:31.489Z,95.70
2018-10-02T01:36:02.614Z,95.73
2018-10-02T01:36:33.752Z,95.67
2018-10-02T01:37:04.863Z,95.82
2018-10-02T01:37:35.985Z,95.54
2018-10-02T01:38:07.102Z,95.94
2018-10-02T01:38:38.215Z,95.24
2018-10-02T01:39:09.318Z,95.29
2018-10-02T01:39:40.484Z,94.97
2018-10-02T01:40:11.618Z,95.20
2018-10-02T01:40:42.732Z,95.23
2018-10-02T01:41:13.857Z,95.36
2018-10-02T01:41:44.961Z,94.94
2018-10-02T01:42:16.089Z,94.78
2018-10-02T01:42:47.206Z,94.72
2018-10-02T01:43:18.362Z,95.18
2018-10-02T01:43:49.502Z,95.06
2018-10-02T01:44:20.625Z,94.59
2018-10-02T01:44:51.812Z,94.83
2018-10-02T01:45:23.254Z,95.02
2018-10-02T01:45:54.380Z,94.78
2018-10-02T01:46:25.483Z,94.67
2018-10-02T01:46:56.588Z,94.84
2018-10-02T01:47:27.699Z,94.59
2018-10-02T01:47:58.801Z,94.76
2018-10-02T01:48:29.921Z,95.24
2018-10-02T01:49:01.062Z,94.61
2018-10-02T01:49:32.166Z,94.99
2018-10-02T01:50:03.333Z,95.00
2018-10-02T01:50:34.485Z,94.50
2018-10-02T01:51:05.641Z,94.90
2018-10-02T01:51:36.751Z,94.93
2018-10-02T01:52:07.868Z,94.72
2018-10-02T01:52:39.035Z,95.00
2018-10-02T01:53:10.151Z,94.97
2018-10-02T01:53:41.253Z,94.75
2018-10-02T01:54:12.354Z,94.98
2018-10-02T01:54:43.448Z,94.79
2018-10-02T01:55:14.559Z,94.94
2018-10-02T01:55:45.661Z,94.61
2018-10-02T01:56:16.863Z,94.48
2018-10-02T01:56:47.978Z,95.19
2018-10-02T01:57:19.069Z,95.05
2018-10-02T01:57:50.193Z,94.97
2018-10-02T01:58:21.344Z,94.81
2018-10-02T01:58:52.473Z,95.23
2018-10-02T01:59:23.586Z,95.33
2018-10-02T01:59:54.694Z,95.24
2018-10-02T02:00:25.807Z,95.59
2018-10-02T02:00:56.947Z,95.18
2018-10-02T02:01:28.077Z,95.72
2018-10-02T02:01:59.186Z,95.15
2018-10-02T02:02:30.362Z,95.17
2018-10-02T02:03:01.467Z,94.97
2018-10-02T02:03:32.590Z,95.34
2018-10-02T02:04:03.710Z,95.12
2018-10-02T02:04:34.810Z,95.18
2018-10-02T02:05:05.927Z,95.33
2018-10-02T02:05:37.126Z,95.46
2018-10-02T02:06:08.252Z,95.86
2018-10-02T02:06:39.369Z,95.31
2018-10-02T02:07:10.485Z,95.42
2018-10-02T02:07:41.678Z,95.73
2018-10-02T02:08:12.801Z,96.06
2018-10-02T02:08:43.910Z,96.08
2018-10-02T02:09:15.019Z,95.88
2018-10-02T02:09:46.164Z,95.75
2018-10-02T02:10:17.276Z,95.46
2018-10-02T02:10:48.401Z,95.73
2018-10-02T02:11:19.504Z,95.91
2018-10-02T02:11:50.614Z,95.73
2018-10-02T02:12:21.722Z,95.65
2018-10-02T02:12:52.864Z,95.68
2018-10-02T02:13:23.976Z,95.28
2018-10-02T02:13:55.072Z,95.72
2018-10-02T02:14:26.179Z,95.98
2018-10-02T02:14:57.287Z,95.56
2018-10-02T02:15:28.401Z,95.54
2018-10-02T02:15:59.516Z,95.82
2018-10-02T02:16:30.628Z,95.89
2018-10-02T02:17:01.744Z,95.68
2018-10-02T02:17:32.895Z,95.79
2018-10-02T02:18:04.035Z,95.60
2018-10-02T02:18:35.178Z,95.86
2018-10-02T02:19:06.304Z,95.86
2018-10-02T02:19:37.403Z,96.04
2018-10-02T02:20:08.549Z,96.02
2018-10-02T02:20:39.647Z,96.02
2018-10-02T02:21:10.764Z,95.81
2018-10-02T02:21:41.901Z,95.42
2018-10-02T02:22:13.006Z,95.71
2018-10-02T02:22:44.125Z,95.27
2018-10-02T02:23:15.286Z,95.45
2018-10-02T02:23:46.393Z,95.91
2018-10-02T02:24:17.514Z,95.77
2018-10-02T02:24:48.667Z,95.87
2018-10-02T02:25:19.789Z,95.54
2018-10-02T02:25:50.908Z,95.88
2018-10-02T02:26:22.028Z,95.63
2018-10-02T02:26:53.137Z,95.64
2018-10-02T02:27:24.242Z,96.01
2018-10-02T02:27:55.363Z,95.75
2018-10-02T02:28:26.510Z,95.53
2018-10-02T02:28:57.640Z,95.84
2018-10-02T02:29:28.758Z,95.42
2018-10-02T02:29:59.861Z,95.00
2018-10-02T02:30:30.979Z,94.83
2018-10-02T02:31:02.110Z,94.83
2018-10-02T02:31:33.221Z,95.44
2018-10-02T02:32:04.332Z,95.22
2018-10-02T02:32:35.430Z,95.03
2018-10-02T02:33:06.566Z,94.90
2018-10-02T02:33:37.679Z,94.58
2018-10-02T02:34:08.789Z,95.34
2018-10-02T02:34:39.940Z,95.18
2018-10-02T02:35:11.071Z,95.05
2018-10-02T02:35:42.190Z,95.16
2018-10-02T02:36:13.290Z,95.31
2018-10-02T02:36:44.393Z,95.51
2018-10-02T02:37:15.504Z,95.23
2018-10-02T02:37:46.646Z,95.47
2018-10-02T02:38:17.774Z,95.50
2018-10-02T02:38:48.894Z,95.52
2018-10-02T02:39:19.998Z,95.30
2018-10-02T02:39:51.114Z,95.24
2018-10-02T02:40:22.237Z,95.01
2018-10-02T02:40:53.400Z,95.48
2018-10-02T02:41:24.562Z,94.78
2018-10-02T02:41:55.744Z,95.11
2018-10-02T02:42:26.866Z,95.48
2018-10-02T02:42:57.988Z,95.23
2018-10-02T02:43:29.095Z,94.85
2018-10-02T02:44:00.222Z,94.98
2018-10-02T02:44:31.334Z,94.76
2018-10-02T02:45:02.438Z,94.94
2018-10-02T02:45:33.606Z,95.17
2018-10-02T02:46:04.712Z,94.81
2018-10-02T02:46:35.830Z,94.71
2018-10-02T02:47:06.965Z,94.97
2018-10-02T02:47:38.086Z,94.43
2018-10-02T02:48:09.221Z,95.01
2018-10-02T02:48:40.324Z,94.54
2018-10-02T02:49:11.482Z,95.21
2018-10-02T02:49:42.607Z,95.04
2018-10-02T02:50:13.733Z,94.61
2018-10-02T02:50:44.870Z,94.21
2018-10-02T02:51:16.033Z,93.98
2018-10-02T02:51:47.127Z,94.15
2018-10-02T02:52:18.238Z,94.57
2018-10-02T02:52:49.346Z,94.29
2018-10-02T02:53:20.470Z,94.12
2018-10-02T02:53:51.575Z,94.17
2018-10-02T02:54:22.683Z,94.18
2018-10-02T02:54:53.817Z,94.61
2018-10-02T02:55:24.936Z,94.09
2018-10-02T02:55:56.052Z,94.53
2018-10-02T02:56:27.231Z,94.07
2018-10-02T02:56:58.360Z,94.23
2018-10-02T02:57:29.457Z,94.06
2018-10-02T02:58:00.560Z,94.65
2018-10-02T02:58:31.676Z,94.18
2018-10-02T02:59:02.777Z,94.54
2018-10-02T02:59:33.882Z,94.24
2018-10-02T03:00:04.985Z,94.07
2018-10-02T03:00:36.096Z,94.03
2018-10-02T03:01:07.192Z,94.24
2018-10-02T03:01:38.340Z,94.46
2018-10-02T03:02:09.451Z,93.93
2018-10-02T03:02:40.573Z,94.30
2018-10-02T03:03:11.684Z,94.24
2018-10-02T03:03:42.781Z,94.16
2018-10-02T03:04:13.889Z,94.10
2018-10-02T03:04:45.033Z,93.77
2018-10-02T03:05:16.136Z,93.73
2018-10-02T03:05:47.262Z,94.23
2018-10-02T03:06:18.429Z,93.68
2018-10-02T03:06:49.541Z,94.11
2018-10-02T03:07:20.637Z,94.02
2018-10-02T03:07:51.733Z,93.58
2018-10-02T03:08:22.867Z,94.02
2018-10-02T03:08:53.975Z,93.86
2018-10-02T03:09:25.151Z,93.84
2018-10-02T03:09:56.247Z,93.88
2018-10-02T03:10:27.358Z,93.51
2018-10-02T03:10:58.477Z,93.55
2018-10-02T03:11:29.588Z,93.64
2018-10-02T03:12:00.705Z,93.38
2018-10-02T03:12:31.835Z,93.46
2018-10-02T03:13:02.994Z,93.23
2018-10-02T03:13:34.131Z,93.48
2018-10-02T03:14:05.228Z,93.18
2018-10-02T03:14:36.332Z,93.36
2018-10-02T03:15:07.474Z,93.39
2018-10-02T03:15:38.594Z,93.43
2018-10-02T03:16:09.686Z,93.36
2018-10-02T03:16:40.837Z,93.32
2018-10-02T03:17:11.972Z,93.60
2018-10-02T03:17:43.088Z,93.82
2018-10-02T03:18:14.202Z,93.78
2018-10-02T03:18:45.309Z,93.80
2018-10-02T03:19:16.395Z,93.78
2018-10-02T03:19:47.506Z,93.58
2018-10-02T03:20:18.658Z,93.33
2018-10-02T03:20:49.770Z,92.98
2018-10-02T03:21:20.891Z,92.95
2018-10-02T03:21:52.192Z,93.02
2018-10-02T03:22:23.184Z,92.80
2018-10-02T03:22:54.303Z,92.80
2018-10-02T03:23:25.438Z,92.85
2018-10-02T03:23:56.548Z,92.62
2018-10-02T03:24:27.643Z,93.09
2018-10-02T03:24:58.739Z,92.50
2018-10-02T03:25:29.899Z,93.16
2018-10-02T03:26:01.026Z,92.66
2018-10-02T03:26:32.140Z,92.60
2018-10-02T03:27:03.258Z,92.62
2018-10-02T03:27:34.361Z,92.57
2018-10-02T03:28:05.473Z,92.35
2018-10-02T03:28:36.589Z,92.38
2018-10-02T03:29:07.731Z,92.72
2018-10-02T03:29:38.831Z,92.76
2018-10-02T03:30:09.935Z,92.71
2018-10-02T03:30:41.073Z,92.36
2018-10-02T03:31:12.184Z,92.52
2018-10-02T03:31:43.286Z,92.07
2018-10-02T03:32:14.387Z,92.54
2018-10-02T03:32:45.515Z,92.24
2018-10-02T03:33:16.619Z,92.76
2018-10-02T03:33:47.761Z,92.06
2018-10-02T03:34:18.873Z,92.65
2018-10-02T03:34:49.993Z,92.55
2018-10-02T03:35:21.100Z,92.56
2018-10-02T03:35:52.226Z,92.35
2018-10-02T03:36:23.379Z,92.26
2018-10-02T03:36:54.512Z,92.34
2018-10-02T03:37:25.635Z,92.02
2018-10-02T03:37:56.760Z,92.53
2018-10-02T03:38:27.941Z,92.78
2018-10-02T03:38:59.068Z,92.11
2018-10-02T03:39:30.268Z,92.27
2018-10-02T03:40:01.354Z,92.56
2018-10-02T03:40:32.460Z,92.17
2018-10-02T03:41:03.586Z,92.48
2018-10-02T03:41:34.707Z,92.58
2018-10-02T03:42:05.844Z,91.95
2018-10-02T03:42:37.033Z,92.26
2018-10-02T03:43:08.159Z,92.52
2018-10-02T03:43:39.295Z,92.45
2018-10-02T03:44:10.421Z,92.58
2018-10-02T03:44:41.526Z,92.10
2018-10-02T03:45:12.641Z,92.39
2018-10-02T03:45:43.799Z,91.75
2018-10-02T03:46:14.894Z,91.72
2018-10-02T03:46:45.990Z,92.18
2018-10-02T03:47:17.101Z,92.07
2018-10-02T03:47:48.204Z,91.46
2018-10-02T03:48:19.304Z,91.73
2018-10-02T03:48:50.509Z,91.14
2018-10-02T03:49:21.620Z,91.29
2018-10-02T03:49:52.731Z,91.18
2018-10-02T03:50:23.855Z,91.71
2018-10-02T03:50:54.953Z,91.44
2018-10-02T03:51:26.093Z,91.71
2018-10-02T03:51:57.219Z,91.43
2018-10-02T03:52:28.333Z,90.97
2018-10-02T03:52:59.437Z,90.94
2018-10-02T03:53:30.601Z,91.41
2018-10-02T03:54:01.730Z,91.58
2018-10-02T03:54:32.872Z,91.12
2018-10-02T03:55:04.002Z,91.50
2018-10-02T03:55:35.118Z,91.12
2018-10-02T03:56:06.235Z,91.39
2018-10-02T03:56:37.330Z,91.08
2018-10-02T03:57:08.444Z,91.30
2018-10-02T03:57:39.555Z,90.82
2018-10-02T03:58:10.726Z,91.23
2018-10-02T03:58:41.856Z,90.99
2018-10-02T03:59:12.965Z,91.36
2018-10-02T03:59:44.093Z,91.37
2018-10-02T04:00:15.254Z,90.97
2018-10-02T04:00:46.383Z,91.21
2018-10-02T04:01:17.485Z,91.45
2018-10-02T04:01:48.603Z,91.50
2018-10-02T04:02:19.713Z,91.58
2018-10-02T04:02:50.873Z,91.64
2018-10-02T04:03:22.133Z,91.18
2018-10-02T04:03:53.207Z,91.53
2018-10-02T04:04:24.335Z,91.18
2018-10-02T04:04:55.490Z,91.61
2018-10-02T04:05:26.591Z,91.40
2018-10-02T04:05:57.726Z,91.79
2018-10-02T04:06:28.821Z,91.61
2018-10-02T04:06:59.956Z,91.69
2018-10-02T04:07:31.092Z,91.04
2018-10-02T04:08:02.215Z,91.31
2018-10-02T04:08:33.353Z,90.92
2018-10-02T04:09:04.450Z,90.95
2018-10-02T04:09:35.599Z,90.59
2018-10-02T04:10:06.711Z,91.13
2018-10-02T04:10:37.897Z,91.00
2018-10-02T04:11:09.015Z,90.82
2018-10-02T04:11:40.132Z,90.20
2018-10-02T04:12:11.238Z,90.36
2018-10-02T04:12:42.345Z,90.25
2018-10-02T04:13:13.530Z,90.27
2018-10-02T04:13:44.594Z,90.20
2018-10-02T04:14:15.706Z,90.25
2018-10-02T04:14:46.832Z,90.65
2018-10-02T04:15:17.957Z,90.33
2018-10-02T04:15:49.101Z,90.74
2018-10-02T04:16:20.197Z,90.35
2018-10-02T04:16:51.306Z,90.52
2018-10-02T04:17:22.440Z,90.36
2018-10-02T04:17:53.537Z,90.43
2018-10-02T04:18:24.633Z,90.35
2018-10-02T04:18:55.758Z,90.67
2018-10-02T04:19:26.854Z,90.84
2018-10-02T04:19:57.989Z,90.93
2018-10-02T04:20:29.127Z,90.81
2018-10-02T04:21:00.268Z,90.91
2018-10-02T04:21:31.387Z,91.01
2018-10-02T04:22:02.507Z,90.88
2018-10-02T04:22:33.633Z,91.30
2018-10-02T04:23:04.741Z,91.09
2018-10-02T04:23:35.845Z,91.33
2018-10-02T04:24:06.950Z,91.04
2018-10-02T04:24:38.105Z,90.84
2018-10-02T04:25:09.230Z,91.09
2018-10-02T04:25:40.387Z,90.25
2018-10-02T04:26:11.523Z,91.30
2018-10-02T04:26:42.648Z,91.29
2018-10-02T04:27:13.781Z,91.42
2018-10-02T04:27:44.937Z,91.79
2018-10-02T04:28:16.117Z,91.60
2018-10-02T04:28:47.209Z,91.52
2018-10-02T04:29:18.373Z,92.06
2018-10-02T04:29:49.477Z,91.79
2018-10-02T04:30:20.595Z,91.41
2018-10-02T04:30:51.749Z,92.05
2018-10-02T04:31:22.855Z,91.32
2018-10-02T04:31:54.019Z,91.15
2018-10-02T04:32:25.145Z,90.93
2018-10-02T04:32:56.293Z,91.48
2018-10-02T04:33:27.408Z,90.94
2018-10-02T04:33:58.609Z,90.62
2018-10-02T04:34:29.709Z,91.00
2018-10-02T04:35:00.841Z,90.22
2018-10-02T04:35:31.954Z,90.68
2018-10-02T04:36:03.101Z,90.08
2018-10-02T04:36:34.216Z,89.99
2018-10-02T04:37:05.347Z,90.20
2018-10-02T04:37:36.456Z,89.74
2018-10-02T04:38:07.565Z,89.49
2018-10-02T04:38:38.688Z,89.39
2018-10-02T04:39:09.881Z,88.95
2018-10-02T04:39:41.017Z,88.27
2018-10-02T04:40:12.125Z,88.23
2018-10-02T04:40:43.219Z,88.06
2018-10-02T04:41:14.318Z,87.57
2018-10-02T04:41:45.432Z,86.60
2018-10-02T04:42:16.561Z,86.76
2018-10-02T04:42:47.678Z,85.74
2018-10-02T04:43:18.820Z,85.88
2018-10-02T04:43:49.924Z,85.20
2018-10-02T04:44:21.045Z,85.08
2018-10-02T04:44:52.171Z,84.57
2018-10-02T04:45:23.270Z,84.43
2018-10-02T04:45:54.379Z,84.62
2018-10-02T04:46:25.520Z,84.92
2018-10-02T04:46:56.677Z,84.56
2018-10-02T04:47:27.806Z,83.74
2018-10-02T04:47:58.955Z,83.92
2018-10-02T04:48:30.071Z,83.86
2018-10-02T04:49:01.208Z,83.18
2018-10-02T04:49:32.306Z,83.22
2018-10-02T04:50:03.441Z,82.48
2018-10-02T04:50:34.577Z,83.21
2018-10-02T04:51:05.766Z,83.20
2018-10-02T04:51:36.873Z,82.39
2018-10-02T04:52:07.981Z,83.20
2018-10-02T04:52:39.118Z,83.01
2018-10-02T04:53:10.220Z,83.43
2018-10-02T04:53:41.352Z,83.22
2018-10-02T04:54:12.479Z,83.20
2018-10-02T04:54:43.582Z,83.66
2018-10-02T04:55:14.743Z,83.98
2018-10-02T04:55:45.921Z,83.39
2018-10-02T04:56:17.074Z,84.63
2018-10-02T04:56:48.209Z,83.88
2018-10-02T04:57:19.319Z,83.04
2018-10-02T04:57:50.417Z,83.29
2018-10-02T04:58:21.526Z,82.80
2018-10-02T04:58:52.631Z,82.78
2018-10-02T04:59:23.754Z,82.65
2018-10-02T04:59:54.861Z,82.54
2018-10-02T05:00:26.016Z,81.98
2018-10-02T05:00:57.131Z,81.43
2018-10-02T05:01:28.291Z,81.18
2018-10-02T05:01:59.414Z,81.68
2018-10-02T05:02:30.525Z,81.02
2018-10-02T05:03:01.658Z,80.18
2018-10-02T05:03:32.776Z,80.69
2018-10-02T05:04:03.904Z,81.08
2018-10-02T05:04:35.027Z,80.74
2018-10-02T05:05:06.207Z,80.23
2018-10-02T05:05:37.317Z,80.91
2018-10-02T05:06:08.426Z,80.27
2018-10-02T05:06:39.545Z,79.56
2018-10-02T05:07:10.768Z,79.23
2018-10-02T05:07:41.882Z,78.63
2018-10-02T05:08:13.003Z,79.54
2018-10-02T05:08:44.152Z,79.57
2018-10-02T05:09:15.260Z,79.39
2018-10-02T05:09:46.452Z,79.15
2018-10-02T05:10:17.641Z,79.72
2018-10-02T05:10:48.752Z,79.83
2018-10-02T05:11:19.871Z,79.48
2018-10-02T05:11:50.984Z,79.94
2018-10-02T05:12:22.091Z,80.18
2018-10-02T05:12:53.204Z,80.11
2018-10-02T05:13:24.314Z,80.08
2018-10-02T05:13:55.447Z,80.89
2018-10-02T05:14:26.570Z,80.88
2018-10-02T05:14:57.717Z,80.79
2018-10-02T05:15:28.872Z,81.67
2018-10-02T05:16:00.008Z,81.49
2018-10-02T05:16:31.148Z,81.43
2018-10-02T05:17:02.249Z,82.42
2018-10-02T05:17:33.344Z,82.38
2018-10-02T05:18:04.508Z,82.88
2018-10-02T05:18:35.665Z,81.66
2018-10-02T05:19:06.806Z,80.99
2018-10-02T05:19:37.932Z,80.80
2018-10-02T05:20:09.034Z,80.62
2018-10-02T05:20:40.239Z,81.31
2018-10-02T05:21:11.335Z,80.68
2018-10-02T05:21:42.455Z,81.03
2018-10-02T05:22:13.555Z,80.44
2018-10-02T05:22:44.667Z,81.24
2018-10-02T05:23:15.798Z,80.72
2018-10-02T05:23:46.909Z,81.10
2018-10-02T05:24:18.016Z,79.45
2018-10-02T05:24:49.124Z,79.70
2018-10-02T05:25:20.235Z,79.40
2018-10-02T05:25:51.382Z,80.03
2018-10-02T05:26:22.534Z,80.63
2018-10-02T05:26:53.627Z,79.58
2018-10-02T05:27:24.828Z,78.19
2018-10-02T05:27:55.899Z,77.87
2018-10-02T05:28:27.014Z,77.07
2018-10-02T05:28:58.112Z,76.89
2018-10-02T05:29:29.270Z,77.72
2018-10-02T05:30:00.384Z,78.48
2018-10-02T05:30:31.495Z,77.99
2018-10-02T05:31:02.614Z,78.66
2018-10-02T05:31:33.786Z,78.39
2018-10-02T05:32:04.908Z,79.16
2018-10-02T05:32:36.026Z,78.14
2018-10-02T05:33:07.180Z,78.13
2018-10-02T05:33:38.372Z,77.95
2018-10-02T05:34:09.463Z,77.31
2018-10-02T05:34:40.620Z,77.05
2018-10-02T05:35:11.899Z,77.64
2018-10-02T05:35:42.890Z,77.85
2018-10-02T05:36:13.993Z,76.17
2018-10-02T05:36:45.142Z,76.28
2018-10-02T05:37:16.241Z,76.85
2018-10-02T05:37:47.368Z,76.67
2018-10-02T05:38:18.473Z,76.09
2018-10-02T05:38:49.589Z,76.78
2018-10-02T05:39:20.682Z,77.09
2018-10-02T05:39:51.842Z,77.70
2018-10-02T05:40:22.970Z,77.28
2018-10-02T05:40:54.093Z,78.00
2018-10-02T05:41:25.207Z,78.02
2018-10-02T05:41:56.344Z,77.73
2018-10-02T05:42:27.473Z,78.09
2018-10-02T05:42:58.568Z,78.23
2018-10-02T05:43:29.695Z,77.62
2018-10-02T05:44:00.805Z,77.88
2018-10-02T05:44:31.922Z,78.14
2018-10-02T05:45:03.024Z,78.44
2018-10-02T05:45:34.160Z,77.74
2018-10-02T05:46:05.277Z,77.35
2018-10-02T05:46:36.387Z,77.79
2018-10-02T05:47:07.507Z,78.39
2018-10-02T05:47:38.669Z,77.39
2018-10-02T05:48:09.771Z,77.32
2018-10-02T05:48:40.902Z,77.13
2018-10-02T05:49:12.016Z,77.85
2018-10-02T05:49:43.137Z,76.82
2018-10-02T05:50:14.244Z,76.84
2018-10-02T05:50:45.360Z,76.65
2018-10-02T05:51:16.484Z,76.93
2018-10-02T05:51:48.685Z,76.01
2018-10-02T05:52:19.855Z,75.40
2018-10-02T05:52:50.989Z,75.27
2018-10-02T05:53:22.088Z,74.85
2018-10-02T05:53:53.197Z,74.79
2018-10-02T05:54:24.313Z,74.42
2018-10-02T05:54:55.462Z,74.32
2018-10-02T05:55:26.573Z,74.47
2018-10-02T05:55:57.708Z,74.13
2018-10-02T05:56:28.840Z,73.78
2018-10-02T05:56:59.978Z,74.33
2018-10-02T05:57:31.082Z,74.42
2018-10-02T05:58:02.273Z,74.78
2018-10-02T05:58:33.379Z,74.74
2018-10-02T05:59:04.487Z,75.06
2018-10-02T05:59:35.600Z,74.63
2018-10-02T06:00:06.708Z,73.86
2018-10-02T06:00:37.892Z,74.18
2018-10-02T06:01:09.006Z,73.44
2018-10-02T06:01:40.138Z,72.76
2018-10-02T06:02:11.294Z,72.26
2018-10-02T06:02:42.415Z,72.39
2018-10-02T06:03:13.600Z,72.10
2018-10-02T06:03:44.786Z,71.33
2018-10-02T06:04:15.888Z,72.04
2018-10-02T06:04:47.006Z,71.77
2018-10-02T06:05:18.155Z,72.41
2018-10-02T06:05:49.301Z,72.15
2018-10-02T06:06:20.441Z,72.00
2018-10-02T06:06:51.564Z,72.37
2018-10-02T06:07:22.754Z,72.59
2018-10-02T06:07:53.908Z,71.99
2018-10-02T06:08:25.077Z,71.42
2018-10-02T06:08:56.214Z,71.87
2018-10-02T06:09:27.338Z,71.19
2018-10-02T06:09:58.486Z,72.09
2018-10-02T06:10:29.690Z,72.06
2018-10-02T06:11:00.850Z,71.33
2018-10-02T06:11:31.970Z,71.44
2018-10-02T06:12:03.154Z,71.54
2018-10-02T06:12:34.280Z,70.21
2018-10-02T06:13:05.436Z,69.99
2018-10-02T06:13:36.609Z,69.64
2018-10-02T06:14:07.723Z,70.17
2018-10-02T06:14:39.156Z,70.70
2018-10-02T06:15:10.316Z,71.01
2018-10-02T06:15:41.440Z,71.42
2018-10-02T06:16:12.578Z,71.22
2018-10-02T06:16:43.776Z,69.76
2018-10-02T06:17:14.923Z,70.19
2018-10-02T06:17:46.064Z,70.12
2018-10-02T06:18:17.351Z,70.18
2018-10-02T06:18:49.616Z,70.02
2018-10-02T06:19:20.707Z,70.25
2018-10-02T06:19:51.818Z,70.41
2018-10-02T06:20:22.968Z,70.81
2018-10-02T06:20:54.147Z,70.73
2018-10-02T06:21:25.273Z,71.58
2018-10-02T06:21:56.460Z,70.68
2018-10-02T06:22:27.589Z,71.04
2018-10-02T06:22:58.720Z,71.48
2018-10-02T06:23:29.851Z,71.57
2018-10-02T06:24:00.988Z,72.83
2018-10-02T06:24:32.146Z,72.70
2018-10-02T06:25:03.347Z,73.13
2018-10-02T06:25:34.471Z,72.47
2018-10-02T06:26:05.693Z,73.30
2018-10-02T06:26:36.805Z,73.20
2018-10-02T06:27:07.966Z,73.24
2018-10-02T06:27:39.181Z,73.45
2018-10-02T06:28:10.300Z,74.32
2018-10-02T06:28:41.413Z,74.23
2018-10-02T06:29:12.531Z,73.78
2018-10-02T06:29:43.650Z,74.18
2018-10-02T06:30:14.804Z,74.80
2018-10-02T06:30:45.905Z,74.86
2018-10-02T06:31:17.167Z,74.57
2018-10-02T06:31:48.294Z,75.23
2018-10-02T06:32:19.423Z,74.28
2018-10-02T06:32:50.626Z,73.24
2018-10-02T06:33:21.673Z,73.64
2018-10-02T06:33:52.870Z,73.90
2018-10-02T06:34:23.991Z,74.06
2018-10-02T06:34:55.098Z,74.04
2018-10-02T06:35:26.236Z,74.46
2018-10-02T06:35:57.368Z,74.90
2018-10-02T06:36:28.530Z,75.97
2018-10-02T06:36:59.792Z,75.33
2018-10-02T06:37:30.902Z,74.42
2018-10-02T06:38:02.225Z,74.41
2018-10-02T06:38:33.469Z,74.80
2018-10-02T06:39:04.559Z,75.52
2018-10-02T06:39:35.660Z,75.14
2018-10-02T06:40:06.852Z,74.64
2018-10-02T06:40:38.002Z,74.38